sensor_id;sensor_type;location;lat;lon;timestamp;P1;durP1;ratioP1;P2;durP2;ratioP2
64633;SDS011;51043;52.406;9.690;2024-02-14T00:01:34;3.97;;;2.10;;
64633;SDS011;51043;52.406;9.690;2024-02-14T00:04:10;6.10;;;2.27;;
64633;SDS011;51043;52.406;9.690;2024-02-14T00:06:40;3.60;;;1.93;;
64633;SDS011;51043;52.406;9.690;2024-02-14T00:09:11;4.47;;;1.80;;
64633;SDS011;51043;52.406;9.690;2024-02-14T00:11:39;3.30;;;1.90;;
64633;SDS011;51043;52.406;9.690;2024-02-14T00:14:08;4.17;;;1.90;;
64633;SDS011;51043;52.406;9.690;2024-02-14T00:16:36;6.27;;;2.10;;
64633;SDS011;51043;52.406;9.690;2024-02-14T00:19:05;4.17;;;2.00;;
64633;SDS011;51043;52.406;9.690;2024-02-14T00:21:34;5.07;;;2.10;;
64633;SDS011;51043;52.406;9.690;2024-02-14T00:24:03;3.23;;;1.87;;
64633;SDS011;51043;52.406;9.690;2024-02-14T00:26:37;3.10;;;1.80;;
64633;SDS011;51043;52.406;9.690;2024-02-14T00:29:08;3.40;;;1.60;;
64633;SDS011;51043;52.406;9.690;2024-02-14T00:31:37;3.17;;;2.00;;
64633;SDS011;51043;52.406;9.690;2024-02-14T00:34:06;6.67;;;1.90;;
64633;SDS011;51043;52.406;9.690;2024-02-14T00:36:35;5.67;;;2.00;;
64633;SDS011;51043;52.406;9.690;2024-02-14T00:39:04;3.83;;;2.00;;
64633;SDS011;51043;52.406;9.690;2024-02-14T00:41:36;3.60;;;2.03;;
64633;SDS011;51043;52.406;9.690;2024-02-14T00:44:05;5.43;;;2.47;;
64633;SDS011;51043;52.406;9.690;2024-02-14T00:46:34;2.53;;;1.80;;
64633;SDS011;51043;52.406;9.690;2024-02-14T00:49:02;4.27;;;2.13;;
64633;SDS011;51043;52.406;9.690;2024-02-14T00:51:31;4.53;;;2.17;;
64633;SDS011;51043;52.406;9.690;2024-02-14T00:53:59;4.47;;;2.00;;
64633;SDS011;51043;52.406;9.690;2024-02-14T00:56:28;4.57;;;1.90;;
64633;SDS011;51043;52.406;9.690;2024-02-14T00:58:58;4.43;;;1.80;;
64633;SDS011;51043;52.406;9.690;2024-02-14T01:01:30;4.80;;;2.07;;
64633;SDS011;51043;52.406;9.690;2024-02-14T01:03:58;4.47;;;2.20;;
64633;SDS011;51043;52.406;9.690;2024-02-14T01:06:29;3.53;;;1.90;;
64633;SDS011;51043;52.406;9.690;2024-02-14T01:08:58;3.47;;;2.20;;
64633;SDS011;51043;52.406;9.690;2024-02-14T01:11:26;4.87;;;1.87;;
64633;SDS011;51043;52.406;9.690;2024-02-14T01:14:06;3.43;;;1.60;;
64633;SDS011;51043;52.406;9.690;2024-02-14T01:16:41;3.13;;;1.90;;
64633;SDS011;51043;52.406;9.690;2024-02-14T01:19:18;6.60;;;2.10;;
64633;SDS011;51043;52.406;9.690;2024-02-14T01:21:46;3.30;;;2.10;;
64633;SDS011;51043;52.406;9.690;2024-02-14T01:24:15;3.77;;;2.13;;
64633;SDS011;51043;52.406;9.690;2024-02-14T01:26:43;4.30;;;2.00;;
64633;SDS011;51043;52.406;9.690;2024-02-14T01:29:13;5.33;;;2.43;;
64633;SDS011;51043;52.406;9.690;2024-02-14T01:31:43;4.00;;;2.30;;
64633;SDS011;51043;52.406;9.690;2024-02-14T01:34:11;5.03;;;2.07;;
64633;SDS011;51043;52.406;9.690;2024-02-14T01:36:45;4.57;;;2.00;;
64633;SDS011;51043;52.406;9.690;2024-02-14T01:39:18;4.80;;;2.50;;
64633;SDS011;51043;52.406;9.690;2024-02-14T01:42:01;5.87;;;2.30;;
64633;SDS011;51043;52.406;9.690;2024-02-14T01:44:43;8.40;;;2.10;;
64633;SDS011;51043;52.406;9.690;2024-02-14T01:47:11;5.07;;;2.23;;
64633;SDS011;51043;52.406;9.690;2024-02-14T01:49:40;2.63;;;2.17;;
64633;SDS011;51043;52.406;9.690;2024-02-14T01:52:12;4.30;;;2.20;;
64633;SDS011;51043;52.406;9.690;2024-02-14T01:54:43;6.47;;;2.60;;
64633;SDS011;51043;52.406;9.690;2024-02-14T01:57:13;3.77;;;2.07;;
64633;SDS011;51043;52.406;9.690;2024-02-14T01:59:44;7.00;;;2.90;;
64633;SDS011;51043;52.406;9.690;2024-02-14T02:02:14;6.40;;;2.23;;
64633;SDS011;51043;52.406;9.690;2024-02-14T02:04:59;8.30;;;2.50;;
64633;SDS011;51043;52.406;9.690;2024-02-14T02:07:28;2.87;;;2.17;;
64633;SDS011;51043;52.406;9.690;2024-02-14T02:09:56;6.37;;;2.60;;
64633;SDS011;51043;52.406;9.690;2024-02-14T02:12:24;6.40;;;2.57;;
64633;SDS011;51043;52.406;9.690;2024-02-14T02:14:55;4.97;;;2.57;;
64633;SDS011;51043;52.406;9.690;2024-02-14T02:17:23;4.07;;;2.63;;
64633;SDS011;51043;52.406;9.690;2024-02-14T02:19:53;8.70;;;2.93;;
64633;SDS011;51043;52.406;9.690;2024-02-14T02:22:21;6.00;;;2.67;;
64633;SDS011;51043;52.406;9.690;2024-02-14T02:24:52;6.57;;;2.67;;
64633;SDS011;51043;52.406;9.690;2024-02-14T02:27:20;5.30;;;3.10;;
64633;SDS011;51043;52.406;9.690;2024-02-14T02:29:48;6.30;;;2.90;;
64633;SDS011;51043;52.406;9.690;2024-02-14T02:32:16;5.40;;;2.70;;
64633;SDS011;51043;52.406;9.690;2024-02-14T02:34:44;7.83;;;2.80;;
64633;SDS011;51043;52.406;9.690;2024-02-14T02:37:13;6.90;;;3.33;;
64633;SDS011;51043;52.406;9.690;2024-02-14T02:39:43;4.30;;;2.90;;
64633;SDS011;51043;52.406;9.690;2024-02-14T02:42:12;5.67;;;2.90;;
64633;SDS011;51043;52.406;9.690;2024-02-14T02:44:41;7.40;;;3.17;;
64633;SDS011;51043;52.406;9.690;2024-02-14T02:47:09;5.83;;;3.37;;
64633;SDS011;51043;52.406;9.690;2024-02-14T02:49:39;4.67;;;3.30;;
64633;SDS011;51043;52.406;9.690;2024-02-14T02:52:07;5.83;;;3.43;;
64633;SDS011;51043;52.406;9.690;2024-02-14T02:54:36;12.23;;;3.87;;
64633;SDS011;51043;52.406;9.690;2024-02-14T02:57:06;7.03;;;3.30;;
64633;SDS011;51043;52.406;9.690;2024-02-14T02:59:37;4.67;;;3.30;;
64633;SDS011;51043;52.406;9.690;2024-02-14T03:02:09;10.37;;;3.67;;
64633;SDS011;51043;52.406;9.690;2024-02-14T03:04:38;7.90;;;3.60;;
64633;SDS011;51043;52.406;9.690;2024-02-14T03:07:07;6.60;;;3.60;;
64633;SDS011;51043;52.406;9.690;2024-02-14T03:09:36;7.13;;;3.90;;
64633;SDS011;51043;52.406;9.690;2024-02-14T03:12:05;8.77;;;4.10;;
64633;SDS011;51043;52.406;9.690;2024-02-14T03:14:33;9.90;;;4.43;;
64633;SDS011;51043;52.406;9.690;2024-02-14T03:17:03;6.17;;;3.83;;
64633;SDS011;51043;52.406;9.690;2024-02-14T03:19:36;6.27;;;4.07;;
64633;SDS011;51043;52.406;9.690;2024-02-14T03:22:06;6.13;;;4.30;;
64633;SDS011;51043;52.406;9.690;2024-02-14T03:24:35;9.20;;;4.50;;
64633;SDS011;51043;52.406;9.690;2024-02-14T03:27:03;10.43;;;4.70;;
64633;SDS011;51043;52.406;9.690;2024-02-14T03:29:32;9.50;;;4.53;;
64633;SDS011;51043;52.406;9.690;2024-02-14T03:32:01;11.67;;;4.37;;
64633;SDS011;51043;52.406;9.690;2024-02-14T03:34:31;8.40;;;3.83;;
64633;SDS011;51043;52.406;9.690;2024-02-14T03:37:02;7.70;;;4.20;;
64633;SDS011;51043;52.406;9.690;2024-02-14T03:39:30;11.27;;;4.53;;
64633;SDS011;51043;52.406;9.690;2024-02-14T03:41:58;9.77;;;4.17;;
64633;SDS011;51043;52.406;9.690;2024-02-14T03:44:29;7.57;;;4.17;;
64633;SDS011;51043;52.406;9.690;2024-02-14T03:46:58;7.73;;;4.20;;
64633;SDS011;51043;52.406;9.690;2024-02-14T03:49:28;6.53;;;4.13;;
64633;SDS011;51043;52.406;9.690;2024-02-14T03:51:56;11.27;;;4.43;;
64633;SDS011;51043;52.406;9.690;2024-02-14T03:54:26;5.47;;;4.03;;
64633;SDS011;51043;52.406;9.690;2024-02-14T03:56:54;11.67;;;4.00;;
64633;SDS011;51043;52.406;9.690;2024-02-14T03:59:22;7.67;;;4.30;;
64633;SDS011;51043;52.406;9.690;2024-02-14T04:01:53;10.73;;;4.30;;
64633;SDS011;51043;52.406;9.690;2024-02-14T04:04:22;10.23;;;4.13;;
64633;SDS011;51043;52.406;9.690;2024-02-14T04:06:58;11.43;;;4.53;;
64633;SDS011;51043;52.406;9.690;2024-02-14T04:09:28;5.63;;;3.93;;
64633;SDS011;51043;52.406;9.690;2024-02-14T04:11:56;6.90;;;4.33;;
64633;SDS011;51043;52.406;9.690;2024-02-14T04:14:24;9.80;;;4.23;;
64633;SDS011;51043;52.406;9.690;2024-02-14T04:16:56;5.77;;;3.70;;
64633;SDS011;51043;52.406;9.690;2024-02-14T04:19:24;7.50;;;3.93;;
64633;SDS011;51043;52.406;9.690;2024-02-14T04:21:53;8.87;;;4.23;;
64633;SDS011;51043;52.406;9.690;2024-02-14T04:24:22;7.30;;;4.10;;
64633;SDS011;51043;52.406;9.690;2024-02-14T04:26:52;7.33;;;4.03;;
64633;SDS011;51043;52.406;9.690;2024-02-14T04:29:21;6.10;;;3.70;;
64633;SDS011;51043;52.406;9.690;2024-02-14T04:31:50;10.50;;;4.50;;
64633;SDS011;51043;52.406;9.690;2024-02-14T04:34:18;9.63;;;3.80;;
64633;SDS011;51043;52.406;9.690;2024-02-14T04:36:47;8.27;;;4.00;;
64633;SDS011;51043;52.406;9.690;2024-02-14T04:39:15;9.50;;;4.00;;
64633;SDS011;51043;52.406;9.690;2024-02-14T04:41:45;9.10;;;3.83;;
64633;SDS011;51043;52.406;9.690;2024-02-14T04:44:15;7.90;;;4.00;;
64633;SDS011;51043;52.406;9.690;2024-02-14T04:46:43;15.63;;;4.43;;
64633;SDS011;51043;52.406;9.690;2024-02-14T04:49:11;8.13;;;3.90;;
64633;SDS011;51043;52.406;9.690;2024-02-14T04:51:41;10.63;;;4.80;;
64633;SDS011;51043;52.406;9.690;2024-02-14T04:54:09;8.57;;;4.30;;
64633;SDS011;51043;52.406;9.690;2024-02-14T04:56:37;8.13;;;4.17;;
64633;SDS011;51043;52.406;9.690;2024-02-14T04:59:08;7.83;;;3.77;;
64633;SDS011;51043;52.406;9.690;2024-02-14T05:01:36;9.87;;;4.50;;
64633;SDS011;51043;52.406;9.690;2024-02-14T05:04:07;13.33;;;4.60;;
64633;SDS011;51043;52.406;9.690;2024-02-14T05:06:36;9.67;;;4.70;;
64633;SDS011;51043;52.406;9.690;2024-02-14T05:09:06;8.37;;;4.63;;
64633;SDS011;51043;52.406;9.690;2024-02-14T05:11:37;8.83;;;4.73;;
64633;SDS011;51043;52.406;9.690;2024-02-14T05:14:07;9.97;;;4.20;;
64633;SDS011;51043;52.406;9.690;2024-02-14T05:16:35;13.20;;;4.40;;
64633;SDS011;51043;52.406;9.690;2024-02-14T05:19:03;13.40;;;4.40;;
64633;SDS011;51043;52.406;9.690;2024-02-14T05:21:31;9.13;;;4.30;;
64633;SDS011;51043;52.406;9.690;2024-02-14T05:23:59;9.73;;;4.40;;
64633;SDS011;51043;52.406;9.690;2024-02-14T05:26:27;11.13;;;4.80;;
64633;SDS011;51043;52.406;9.690;2024-02-14T05:28:57;9.07;;;4.37;;
64633;SDS011;51043;52.406;9.690;2024-02-14T05:31:29;7.70;;;4.73;;
64633;SDS011;51043;52.406;9.690;2024-02-14T05:34:13;10.00;;;4.67;;
64633;SDS011;51043;52.406;9.690;2024-02-14T05:36:41;12.10;;;4.80;;
64633;SDS011;51043;52.406;9.690;2024-02-14T05:39:12;10.47;;;4.20;;
64633;SDS011;51043;52.406;9.690;2024-02-14T05:41:42;8.90;;;4.77;;
64633;SDS011;51043;52.406;9.690;2024-02-14T05:44:11;14.10;;;5.30;;
64633;SDS011;51043;52.406;9.690;2024-02-14T05:46:41;7.80;;;4.43;;
64633;SDS011;51043;52.406;9.690;2024-02-14T05:49:09;12.27;;;4.77;;
64633;SDS011;51043;52.406;9.690;2024-02-14T05:51:37;9.30;;;4.67;;
64633;SDS011;51043;52.406;9.690;2024-02-14T05:54:05;10.77;;;5.23;;
64633;SDS011;51043;52.406;9.690;2024-02-14T05:56:33;6.80;;;4.43;;
64633;SDS011;51043;52.406;9.690;2024-02-14T05:59:02;7.10;;;3.87;;
64633;SDS011;51043;52.406;9.690;2024-02-14T06:01:30;11.50;;;4.80;;
64633;SDS011;51043;52.406;9.690;2024-02-14T06:04:00;9.13;;;4.93;;
64633;SDS011;51043;52.406;9.690;2024-02-14T06:06:28;11.13;;;5.10;;
64633;SDS011;51043;52.406;9.690;2024-02-14T06:08:58;8.87;;;5.20;;
64633;SDS011;51043;52.406;9.690;2024-02-14T06:11:26;8.43;;;5.20;;
64633;SDS011;51043;52.406;9.690;2024-02-14T06:13:54;5.73;;;4.83;;
64633;SDS011;51043;52.406;9.690;2024-02-14T06:16:22;13.53;;;5.13;;
64633;SDS011;51043;52.406;9.690;2024-02-14T06:18:51;11.40;;;5.20;;
64633;SDS011;51043;52.406;9.690;2024-02-14T06:21:21;9.70;;;5.43;;
64633;SDS011;51043;52.406;9.690;2024-02-14T06:23:49;7.07;;;4.63;;
64633;SDS011;51043;52.406;9.690;2024-02-14T06:26:18;6.03;;;4.43;;
64633;SDS011;51043;52.406;9.690;2024-02-14T06:28:46;9.43;;;5.00;;
64633;SDS011;51043;52.406;9.690;2024-02-14T06:31:20;6.63;;;4.13;;
64633;SDS011;51043;52.406;9.690;2024-02-14T06:33:49;7.60;;;5.10;;
64633;SDS011;51043;52.406;9.690;2024-02-14T06:36:17;7.90;;;4.50;;
64633;SDS011;51043;52.406;9.690;2024-02-14T06:38:46;9.40;;;4.30;;
64633;SDS011;51043;52.406;9.690;2024-02-14T06:41:15;8.10;;;4.47;;
64633;SDS011;51043;52.406;9.690;2024-02-14T06:43:43;3.30;;;2.90;;
64633;SDS011;51043;52.406;9.690;2024-02-14T06:46:11;7.20;;;3.80;;
64633;SDS011;51043;52.406;9.690;2024-02-14T06:48:40;6.43;;;3.73;;
64633;SDS011;51043;52.406;9.690;2024-02-14T06:51:08;5.17;;;4.10;;
64633;SDS011;51043;52.406;9.690;2024-02-14T06:53:36;6.53;;;4.27;;
64633;SDS011;51043;52.406;9.690;2024-02-14T06:56:06;6.63;;;3.70;;
64633;SDS011;51043;52.406;9.690;2024-02-14T06:58:34;4.80;;;3.63;;
64633;SDS011;51043;52.406;9.690;2024-02-14T07:01:02;5.27;;;3.20;;
64633;SDS011;51043;52.406;9.690;2024-02-14T07:03:31;7.00;;;3.40;;
64633;SDS011;51043;52.406;9.690;2024-02-14T07:05:59;4.67;;;3.30;;
64633;SDS011;51043;52.406;9.690;2024-02-14T07:08:27;4.50;;;2.70;;
64633;SDS011;51043;52.406;9.690;2024-02-14T07:10:57;5.80;;;2.87;;
64633;SDS011;51043;52.406;9.690;2024-02-14T07:13:26;4.70;;;2.90;;
64633;SDS011;51043;52.406;9.690;2024-02-14T07:15:55;3.63;;;2.63;;
64633;SDS011;51043;52.406;9.690;2024-02-14T07:18:23;4.77;;;2.90;;
64633;SDS011;51043;52.406;9.690;2024-02-14T07:20:52;2.77;;;2.57;;
64633;SDS011;51043;52.406;9.690;2024-02-14T07:23:21;2.80;;;2.60;;
64633;SDS011;51043;52.406;9.690;2024-02-14T07:25:49;3.57;;;2.60;;
64633;SDS011;51043;52.406;9.690;2024-02-14T07:28:17;4.83;;;2.53;;
64633;SDS011;51043;52.406;9.690;2024-02-14T07:30:46;2.87;;;2.37;;
64633;SDS011;51043;52.406;9.690;2024-02-14T07:33:15;4.37;;;2.50;;
64633;SDS011;51043;52.406;9.690;2024-02-14T07:35:43;4.33;;;2.70;;
64633;SDS011;51043;52.406;9.690;2024-02-14T07:38:13;4.37;;;2.57;;
64633;SDS011;51043;52.406;9.690;2024-02-14T07:40:44;4.13;;;2.70;;
64633;SDS011;51043;52.406;9.690;2024-02-14T07:43:12;3.50;;;2.20;;
64633;SDS011;51043;52.406;9.690;2024-02-14T07:45:40;2.50;;;2.30;;
64633;SDS011;51043;52.406;9.690;2024-02-14T07:48:10;4.17;;;2.20;;
64633;SDS011;51043;52.406;9.690;2024-02-14T07:50:38;3.03;;;2.50;;
64633;SDS011;51043;52.406;9.690;2024-02-14T07:53:06;4.27;;;2.20;;
64633;SDS011;51043;52.406;9.690;2024-02-14T07:55:36;2.47;;;2.00;;
64633;SDS011;51043;52.406;9.690;2024-02-14T07:58:05;3.20;;;2.20;;
64633;SDS011;51043;52.406;9.690;2024-02-14T08:00:33;3.10;;;2.00;;
64633;SDS011;51043;52.406;9.690;2024-02-14T08:03:02;3.33;;;2.17;;
64633;SDS011;51043;52.406;9.690;2024-02-14T08:05:34;3.40;;;2.10;;
64633;SDS011;51043;52.406;9.690;2024-02-14T08:08:03;2.67;;;1.80;;
64633;SDS011;51043;52.406;9.690;2024-02-14T08:10:38;3.10;;;1.90;;
64633;SDS011;51043;52.406;9.690;2024-02-14T08:13:06;1.60;;;1.50;;
64633;SDS011;51043;52.406;9.690;2024-02-14T08:15:36;1.90;;;1.70;;
64633;SDS011;51043;52.406;9.690;2024-02-14T08:18:07;1.80;;;1.70;;
64633;SDS011;51043;52.406;9.690;2024-02-14T08:20:37;2.43;;;1.60;;
64633;SDS011;51043;52.406;9.690;2024-02-14T08:23:08;2.43;;;1.60;;
64633;SDS011;51043;52.406;9.690;2024-02-14T08:25:38;1.47;;;1.23;;
64633;SDS011;51043;52.406;9.690;2024-02-14T08:28:08;1.70;;;1.60;;
64633;SDS011;51043;52.406;9.690;2024-02-14T08:30:37;1.60;;;1.50;;
64633;SDS011;51043;52.406;9.690;2024-02-14T08:33:07;3.07;;;1.50;;
64633;SDS011;51043;52.406;9.690;2024-02-14T08:35:39;1.60;;;1.50;;
64633;SDS011;51043;52.406;9.690;2024-02-14T08:38:08;3.20;;;1.43;;
64633;SDS011;51043;52.406;9.690;2024-02-14T08:40:38;1.50;;;1.40;;
64633;SDS011;51043;52.406;9.690;2024-02-14T08:43:06;1.70;;;1.53;;
64633;SDS011;51043;52.406;9.690;2024-02-14T08:45:36;2.13;;;1.50;;
64633;SDS011;51043;52.406;9.690;2024-02-14T08:48:06;1.57;;;1.47;;
64633;SDS011;51043;52.406;9.690;2024-02-14T08:50:34;3.13;;;1.60;;
64633;SDS011;51043;52.406;9.690;2024-02-14T08:53:04;2.03;;;1.93;;
64633;SDS011;51043;52.406;9.690;2024-02-14T08:55:34;1.97;;;1.60;;
64633;SDS011;51043;52.406;9.690;2024-02-14T08:58:04;2.87;;;2.00;;
64633;SDS011;51043;52.406;9.690;2024-02-14T09:00:33;3.60;;;2.30;;
64633;SDS011;51043;52.406;9.690;2024-02-14T09:03:02;2.13;;;1.87;;
64633;SDS011;51043;52.406;9.690;2024-02-14T09:05:31;2.97;;;2.30;;
64633;SDS011;51043;52.406;9.690;2024-02-14T09:08:01;3.23;;;2.60;;
64633;SDS011;51043;52.406;9.690;2024-02-14T09:10:31;5.33;;;3.17;;
64633;SDS011;51043;52.406;9.690;2024-02-14T09:13:00;4.10;;;3.70;;
64633;SDS011;51043;52.406;9.690;2024-02-14T09:15:28;4.43;;;3.80;;
64633;SDS011;51043;52.406;9.690;2024-02-14T09:17:57;4.53;;;4.13;;
64633;SDS011;51043;52.406;9.690;2024-02-14T09:20:27;5.13;;;4.60;;
64633;SDS011;51043;52.406;9.690;2024-02-14T09:22:56;7.20;;;5.00;;
64633;SDS011;51043;52.406;9.690;2024-02-14T09:25:28;9.43;;;6.63;;
64633;SDS011;51043;52.406;9.690;2024-02-14T09:27:58;5.67;;;5.17;;
64633;SDS011;51043;52.406;9.690;2024-02-14T09:30:26;6.40;;;5.50;;
64633;SDS011;51043;52.406;9.690;2024-02-14T09:32:57;6.17;;;5.57;;
64633;SDS011;51043;52.406;9.690;2024-02-14T09:35:25;8.00;;;6.10;;
64633;SDS011;51043;52.406;9.690;2024-02-14T09:37:54;6.17;;;5.67;;
64633;SDS011;51043;52.406;9.690;2024-02-14T09:40:22;7.40;;;5.93;;
64633;SDS011;51043;52.406;9.690;2024-02-14T09:42:53;7.63;;;6.00;;
64633;SDS011;51043;52.406;9.690;2024-02-14T09:45:23;7.57;;;6.13;;
64633;SDS011;51043;52.406;9.690;2024-02-14T09:47:54;7.37;;;6.07;;
64633;SDS011;51043;52.406;9.690;2024-02-14T09:50:22;6.60;;;6.00;;
64633;SDS011;51043;52.406;9.690;2024-02-14T09:52:51;7.53;;;6.33;;
64633;SDS011;51043;52.406;9.690;2024-02-14T09:55:20;6.13;;;5.50;;
64633;SDS011;51043;52.406;9.690;2024-02-14T09:57:52;6.00;;;5.40;;
64633;SDS011;51043;52.406;9.690;2024-02-14T10:00:21;6.33;;;5.30;;
64633;SDS011;51043;52.406;9.690;2024-02-14T10:02:51;5.67;;;4.70;;
64633;SDS011;51043;52.406;9.690;2024-02-14T10:05:20;5.33;;;4.80;;
64633;SDS011;51043;52.406;9.690;2024-02-14T10:07:49;3.90;;;3.60;;
64633;SDS011;51043;52.406;9.690;2024-02-14T10:10:17;8.00;;;4.80;;
64633;SDS011;51043;52.406;9.690;2024-02-14T10:12:45;6.07;;;5.00;;
64633;SDS011;51043;52.406;9.690;2024-02-14T10:15:13;5.63;;;5.07;;
64633;SDS011;51043;52.406;9.690;2024-02-14T10:17:44;8.77;;;4.83;;
64633;SDS011;51043;52.406;9.690;2024-02-14T10:20:16;5.33;;;4.83;;
64633;SDS011;51043;52.406;9.690;2024-02-14T10:22:44;4.63;;;4.20;;
64633;SDS011;51043;52.406;9.690;2024-02-14T10:25:13;5.20;;;4.00;;
64633;SDS011;51043;52.406;9.690;2024-02-14T10:27:41;5.37;;;4.70;;
64633;SDS011;51043;52.406;9.690;2024-02-14T10:30:09;4.67;;;3.87;;
64633;SDS011;51043;52.406;9.690;2024-02-14T10:32:41;6.93;;;4.53;;
64633;SDS011;51043;52.406;9.690;2024-02-14T10:35:16;4.37;;;3.97;;
64633;SDS011;51043;52.406;9.690;2024-02-14T10:37:47;6.43;;;4.03;;
64633;SDS011;51043;52.406;9.690;2024-02-14T10:40:16;4.43;;;3.60;;
64633;SDS011;51043;52.406;9.690;2024-02-14T10:42:47;3.40;;;2.67;;
64633;SDS011;51043;52.406;9.690;2024-02-14T10:45:21;2.87;;;2.67;;
64633;SDS011;51043;52.406;9.690;2024-02-14T10:47:51;5.50;;;4.13;;
64633;SDS011;51043;52.406;9.690;2024-02-14T10:50:23;4.33;;;3.77;;
64633;SDS011;51043;52.406;9.690;2024-02-14T10:52:53;5.10;;;4.27;;
64633;SDS011;51043;52.406;9.690;2024-02-14T10:55:25;3.90;;;3.47;;
64633;SDS011;51043;52.406;9.690;2024-02-14T10:57:58;4.20;;;3.00;;
64633;SDS011;51043;52.406;9.690;2024-02-14T11:00:26;4.07;;;3.20;;
64633;SDS011;51043;52.406;9.690;2024-02-14T11:02:59;4.10;;;3.20;;
64633;SDS011;51043;52.406;9.690;2024-02-14T11:05:31;3.47;;;3.23;;
64633;SDS011;51043;52.406;9.690;2024-02-14T11:08:07;4.17;;;3.40;;
64633;SDS011;51043;52.406;9.690;2024-02-14T11:10:37;5.07;;;3.23;;
64633;SDS011;51043;52.406;9.690;2024-02-14T11:13:09;3.50;;;3.20;;
64633;SDS011;51043;52.406;9.690;2024-02-14T11:15:44;3.47;;;3.17;;
64633;SDS011;51043;52.406;9.690;2024-02-14T11:18:13;3.83;;;3.47;;
64633;SDS011;51043;52.406;9.690;2024-02-14T11:20:42;4.13;;;3.50;;
64633;SDS011;51043;52.406;9.690;2024-02-14T11:23:20;4.53;;;3.10;;
64633;SDS011;51043;52.406;9.690;2024-02-14T11:25:49;3.10;;;2.77;;
64633;SDS011;51043;52.406;9.690;2024-02-14T11:28:18;3.47;;;3.13;;
64633;SDS011;51043;52.406;9.690;2024-02-14T11:30:52;3.20;;;2.90;;
64633;SDS011;51043;52.406;9.690;2024-02-14T11:33:28;3.20;;;2.90;;
64633;SDS011;51043;52.406;9.690;2024-02-14T11:36:08;3.40;;;2.77;;
64633;SDS011;51043;52.406;9.690;2024-02-14T11:38:41;2.73;;;2.33;;
64633;SDS011;51043;52.406;9.690;2024-02-14T11:41:10;3.57;;;3.00;;
64633;SDS011;51043;52.406;9.690;2024-02-14T11:43:38;3.47;;;3.17;;
64633;SDS011;51043;52.406;9.690;2024-02-14T11:46:07;4.13;;;3.50;;
64633;SDS011;51043;52.406;9.690;2024-02-14T11:48:36;4.20;;;3.63;;
64633;SDS011;51043;52.406;9.690;2024-02-14T11:51:07;4.13;;;3.20;;
64633;SDS011;51043;52.406;9.690;2024-02-14T11:53:37;3.40;;;3.07;;
64633;SDS011;51043;52.406;9.690;2024-02-14T11:56:07;3.10;;;2.90;;
64633;SDS011;51043;52.406;9.690;2024-02-14T11:58:35;4.03;;;3.57;;
64633;SDS011;51043;52.406;9.690;2024-02-14T12:01:03;6.37;;;3.70;;
64633;SDS011;51043;52.406;9.690;2024-02-14T12:03:32;4.20;;;3.80;;
64633;SDS011;51043;52.406;9.690;2024-02-14T12:06:01;4.73;;;3.83;;
64633;SDS011;51043;52.406;9.690;2024-02-14T12:08:33;3.03;;;2.83;;
64633;SDS011;51043;52.406;9.690;2024-02-14T12:11:04;6.33;;;3.53;;
64633;SDS011;51043;52.406;9.690;2024-02-14T12:13:34;5.23;;;3.50;;
64633;SDS011;51043;52.406;9.690;2024-02-14T12:16:11;4.17;;;3.77;;
64633;SDS011;51043;52.406;9.690;2024-02-14T12:18:39;3.80;;;3.50;;
64633;SDS011;51043;52.406;9.690;2024-02-14T12:21:08;4.70;;;4.30;;
64633;SDS011;51043;52.406;9.690;2024-02-14T12:23:39;5.40;;;4.90;;
64633;SDS011;51043;52.406;9.690;2024-02-14T12:26:10;5.80;;;4.83;;
64633;SDS011;51043;52.406;9.690;2024-02-14T12:28:45;5.60;;;5.10;;
64633;SDS011;51043;52.406;9.690;2024-02-14T12:31:21;7.47;;;4.83;;
64633;SDS011;51043;52.406;9.690;2024-02-14T12:33:50;6.37;;;5.10;;
64633;SDS011;51043;52.406;9.690;2024-02-14T12:36:21;5.60;;;5.00;;
64633;SDS011;51043;52.406;9.690;2024-02-14T12:38:50;5.50;;;5.00;;
64633;SDS011;51043;52.406;9.690;2024-02-14T12:41:19;5.30;;;4.80;;
64633;SDS011;51043;52.406;9.690;2024-02-14T12:43:48;4.67;;;4.20;;
64633;SDS011;51043;52.406;9.690;2024-02-14T12:46:18;5.17;;;4.50;;
64633;SDS011;51043;52.406;9.690;2024-02-14T12:48:49;6.70;;;4.70;;
64633;SDS011;51043;52.406;9.690;2024-02-14T12:51:21;5.03;;;4.50;;
64633;SDS011;51043;52.406;9.690;2024-02-14T12:53:56;4.90;;;4.50;;
64633;SDS011;51043;52.406;9.690;2024-02-14T12:56:23;7.20;;;4.83;;
64633;SDS011;51043;52.406;9.690;2024-02-14T12:58:52;5.70;;;4.60;;
64633;SDS011;51043;52.406;9.690;2024-02-14T13:01:20;5.87;;;4.40;;
64633;SDS011;51043;52.406;9.690;2024-02-14T13:03:48;5.90;;;4.80;;
64633;SDS011;51043;52.406;9.690;2024-02-14T13:06:17;5.47;;;4.60;;
64633;SDS011;51043;52.406;9.690;2024-02-14T13:08:47;5.00;;;4.57;;
64633;SDS011;51043;52.406;9.690;2024-02-14T13:11:16;5.10;;;4.60;;
64633;SDS011;51043;52.406;9.690;2024-02-14T13:13:45;6.50;;;4.73;;
64633;SDS011;51043;52.406;9.690;2024-02-14T13:16:14;6.87;;;4.40;;
64633;SDS011;51043;52.406;9.690;2024-02-14T13:18:42;5.23;;;4.73;;
64633;SDS011;51043;52.406;9.690;2024-02-14T13:21:13;4.67;;;4.27;;
64633;SDS011;51043;52.406;9.690;2024-02-14T13:23:43;6.27;;;4.97;;
64633;SDS011;51043;52.406;9.690;2024-02-14T13:26:11;4.63;;;4.17;;
64633;SDS011;51043;52.406;9.690;2024-02-14T13:28:42;5.40;;;4.40;;
64633;SDS011;51043;52.406;9.690;2024-02-14T13:31:11;5.17;;;4.40;;
64633;SDS011;51043;52.406;9.690;2024-02-14T13:33:41;4.80;;;4.30;;
64633;SDS011;51043;52.406;9.690;2024-02-14T13:36:10;5.13;;;3.67;;
64633;SDS011;51043;52.406;9.690;2024-02-14T13:38:38;7.03;;;3.73;;
64633;SDS011;51043;52.406;9.690;2024-02-14T13:41:06;5.17;;;3.40;;
64633;SDS011;51043;52.406;9.690;2024-02-14T13:43:34;6.03;;;3.90;;
64633;SDS011;51043;52.406;9.690;2024-02-14T13:46:08;6.17;;;3.80;;
64633;SDS011;51043;52.406;9.690;2024-02-14T13:48:38;6.33;;;3.60;;
64633;SDS011;51043;52.406;9.690;2024-02-14T13:51:07;4.20;;;3.80;;
64633;SDS011;51043;52.406;9.690;2024-02-14T13:53:36;5.40;;;3.40;;
64633;SDS011;51043;52.406;9.690;2024-02-14T13:56:04;4.73;;;3.40;;
64633;SDS011;51043;52.406;9.690;2024-02-14T13:58:33;3.87;;;2.83;;
64633;SDS011;51043;52.406;9.690;2024-02-14T14:01:02;6.93;;;3.23;;
64633;SDS011;51043;52.406;9.690;2024-02-14T14:03:32;4.00;;;2.77;;
64633;SDS011;51043;52.406;9.690;2024-02-14T14:06:01;3.50;;;2.60;;
64633;SDS011;51043;52.406;9.690;2024-02-14T14:08:32;2.90;;;2.60;;
64633;SDS011;51043;52.406;9.690;2024-02-14T14:11:02;4.00;;;3.13;;
64633;SDS011;51043;52.406;9.690;2024-02-14T14:13:30;2.90;;;2.60;;
64633;SDS011;51043;52.406;9.690;2024-02-14T14:15:59;3.00;;;2.70;;
64633;SDS011;51043;52.406;9.690;2024-02-14T14:18:28;3.50;;;2.50;;
64633;SDS011;51043;52.406;9.690;2024-02-14T14:20:57;3.63;;;2.80;;
64633;SDS011;51043;52.406;9.690;2024-02-14T14:23:25;3.70;;;2.73;;
64633;SDS011;51043;52.406;9.690;2024-02-14T14:25:54;2.70;;;2.50;;
64633;SDS011;51043;52.406;9.690;2024-02-14T14:28:22;4.03;;;2.60;;
64633;SDS011;51043;52.406;9.690;2024-02-14T14:30:51;3.93;;;2.80;;
64633;SDS011;51043;52.406;9.690;2024-02-14T14:33:22;2.70;;;2.50;;
64633;SDS011;51043;52.406;9.690;2024-02-14T14:35:52;4.20;;;2.90;;
64633;SDS011;51043;52.406;9.690;2024-02-14T14:38:23;4.63;;;2.60;;
64633;SDS011;51043;52.406;9.690;2024-02-14T14:40:53;2.90;;;2.60;;
64633;SDS011;51043;52.406;9.690;2024-02-14T14:43:22;3.97;;;3.10;;
64633;SDS011;51043;52.406;9.690;2024-02-14T14:45:53;2.93;;;2.73;;
64633;SDS011;51043;52.406;9.690;2024-02-14T14:48:23;3.60;;;3.30;;
64633;SDS011;51043;52.406;9.690;2024-02-14T14:50:53;4.07;;;3.50;;
64633;SDS011;51043;52.406;9.690;2024-02-14T14:53:23;4.63;;;3.60;;
64633;SDS011;51043;52.406;9.690;2024-02-14T14:55:52;5.37;;;3.60;;
64633;SDS011;51043;52.406;9.690;2024-02-14T14:58:25;3.80;;;3.33;;
64633;SDS011;51043;52.406;9.690;2024-02-14T15:00:58;3.73;;;3.27;;